createdAt,value
2018-01-12T00:00:41.775Z,91.83
2018-01-12T00:03:10.055Z,92.48
2018-01-12T00:05:38.337Z,92.80
2018-01-12T00:08:06.631Z,92.44
2018-01-12T00:10:34.900Z,92.88
2018-01-12T00:13:04.527Z,92.51
2018-01-12T00:15:32.811Z,92.54
2018-01-12T00:18:01.833Z,92.71
2018-01-12T00:20:30.095Z,92.65
2018-01-12T00:22:59.117Z,92.34
2018-01-12T00:25:28.197Z,92.26
2018-01-12T00:27:56.489Z,91.95
2018-01-12T00:30:26.106Z,92.47
2018-01-12T00:32:54.350Z,92.69
2018-01-12T00:35:22.621Z,92.17
2018-01-12T00:37:50.876Z,92.42
2018-01-12T00:40:19.135Z,92.65
2018-01-12T00:42:47.384Z,92.54
2018-01-12T00:45:15.654Z,92.84
2018-01-12T00:47:44.715Z,92.81
2018-01-12T00:50:13.025Z,92.90
2018-01-12T00:52:41.302Z,93.43
2018-01-12T00:55:09.654Z,93.57
2018-01-12T00:57:37.925Z,93.92
2018-01-12T01:00:06.951Z,93.84
2018-01-12T01:02:35.255Z,93.76
2018-01-12T01:05:03.523Z,93.62
2018-01-12T01:07:31.779Z,93.22
2018-01-12T01:10:00.096Z,93.43
2018-01-12T01:12:28.400Z,93.63
2018-01-12T01:14:56.776Z,93.66
2018-01-12T01:17:25.800Z,94.02
2018-01-12T01:19:54.064Z,93.88
2018-01-12T01:22:23.076Z,93.71
2018-01-12T01:24:52.113Z,93.15
2018-01-12T01:27:20.371Z,93.28
2018-01-12T01:29:49.396Z,93.73
2018-01-12T01:32:17.651Z,94.10
2018-01-12T01:34:45.930Z,94.13
2018-01-12T01:37:14.187Z,94.13
2018-01-12T01:39:42.446Z,94.10
2018-01-12T01:42:10.784Z,93.77
2018-01-12T01:44:39.075Z,93.87
2018-01-12T01:47:07.380Z,94.37
2018-01-12T01:49:35.631Z,94.56
2018-01-12T01:52:04.737Z,94.38
2018-01-12T01:54:32.983Z,94.34
2018-01-12T01:57:02.016Z,93.89
2018-01-12T01:59:30.288Z,93.74
2018-01-12T02:01:59.312Z,93.61
2018-01-12T02:04:27.581Z,93.72
2018-01-12T02:06:55.882Z,94.01
2018-01-12T02:09:24.891Z,94.12
2018-01-12T02:11:53.171Z,94.24
2018-01-12T02:14:22.189Z,94.43
2018-01-12T02:16:50.456Z,93.49
2018-01-12T02:19:19.473Z,93.86
2018-01-12T02:21:48.508Z,94.03
2018-01-12T02:24:16.760Z,94.27
2018-01-12T02:26:45.796Z,93.98
2018-01-12T02:29:14.055Z,93.68
2018-01-12T02:31:43.116Z,93.92
2018-01-12T02:34:11.387Z,94.12
2018-01-12T02:36:39.718Z,93.73
2018-01-12T02:39:07.994Z,93.49
2018-01-12T02:41:36.260Z,93.09
2018-01-12T02:44:04.512Z,93.23
2018-01-12T02:46:33.554Z,93.23
2018-01-12T02:49:01.811Z,93.25
2018-01-12T02:51:30.841Z,93.46
2018-01-12T02:53:59.112Z,93.52
2018-01-12T02:56:27.527Z,92.32
2018-01-12T02:58:55.862Z,92.32
2018-01-12T03:01:24.134Z,92.87
2018-01-12T03:03:52.383Z,93.13
2018-01-12T03:06:20.639Z,93.31
2018-01-12T03:08:48.909Z,93.25
2018-01-12T03:11:17.167Z,93.23
2018-01-12T03:13:45.432Z,92.59
2018-01-12T03:16:13.708Z,92.47
2018-01-12T03:18:42.776Z,92.64
2018-01-12T03:21:11.040Z,92.74
2018-01-12T03:23:39.400Z,93.08
2018-01-12T03:26:07.670Z,92.97
2018-01-12T03:28:36.704Z,92.89
2018-01-12T03:31:04.997Z,93.29
2018-01-12T03:33:33.259Z,93.19
2018-01-12T03:36:03.019Z,93.24
2018-01-12T03:38:31.288Z,93.31
2018-01-12T03:41:00.312Z,92.92
2018-01-12T03:43:28.599Z,92.27
2018-01-12T03:45:56.852Z,93.12
2018-01-12T03:48:25.960Z,93.10
2018-01-12T03:50:55.020Z,93.25
2018-01-12T03:53:23.282Z,93.30
2018-01-12T03:55:51.565Z,93.11
2018-01-12T03:58:20.603Z,92.55
2018-01-12T04:00:48.852Z,92.26
2018-01-12T04:03:17.891Z,92.24
2018-01-12T04:05:46.196Z,92.49
2018-01-12T04:08:14.424Z,92.19
2018-01-12T04:10:43.497Z,92.53
2018-01-12T04:13:11.805Z,92.21
2018-01-12T04:15:40.090Z,92.29
2018-01-12T04:18:08.370Z,92.85
2018-01-12T04:20:36.638Z,92.46
2018-01-12T04:23:05.667Z,92.46
2018-01-12T04:25:33.923Z,92.30
2018-01-12T04:28:02.187Z,92.42
2018-01-12T04:30:31.576Z,92.58
2018-01-12T04:32:59.847Z,92.66
2018-01-12T04:35:28.094Z,92.73
2018-01-12T04:37:56.382Z,92.91
2018-01-12T04:40:25.412Z,92.44
2018-01-12T04:42:54.704Z,92.22
2018-01-12T04:45:22.992Z,91.88
2018-01-12T04:47:51.239Z,92.68
2018-01-12T04:50:19.503Z,92.80
2018-01-12T04:52:47.751Z,92.82
2018-01-12T04:55:16.783Z,92.58
2018-01-12T04:57:45.056Z,92.88
2018-01-12T05:00:13.346Z,92.75
2018-01-12T05:02:41.651Z,92.95
2018-01-12T05:05:10.033Z,93.20
2018-01-12T05:07:38.387Z,92.44
2018-01-12T05:10:07.457Z,93.10
2018-01-12T05:12:35.724Z,92.88
2018-01-12T05:15:04.006Z,92.78
2018-01-12T05:17:32.255Z,93.13
2018-01-12T05:20:00.526Z,93.20
2018-01-12T05:22:28.812Z,93.08
2018-01-12T05:24:57.091Z,93.08
2018-01-12T05:27:25.355Z,92.71
2018-01-12T05:29:53.620Z,92.38
2018-01-12T05:32:22.655Z,93.33
2018-01-12T05:34:50.919Z,93.07
2018-01-12T05:37:19.940Z,92.79
2018-01-12T05:39:48.197Z,93.25
2018-01-12T05:42:16.450Z,93.44
2018-01-12T05:44:44.711Z,93.04
2018-01-12T05:47:12.975Z,92.61
2018-01-12T05:49:42.015Z,92.42
2018-01-12T05:52:10.340Z,92.27
2018-01-12T05:54:38.631Z,92.42
2018-01-12T05:57:06.901Z,92.61
2018-01-12T05:59:35.181Z,92.63
2018-01-12T06:02:21.334Z,93.10
2018-01-12T06:07:56.517Z,92.07
2018-01-12T06:10:24.797Z,92.41
2018-01-12T06:12:53.095Z,92.19
2018-01-12T06:15:21.385Z,92.00
2018-01-12T06:17:49.635Z,92.31
2018-01-12T06:20:17.905Z,91.07
2018-01-12T06:22:46.156Z,91.58
2018-01-12T06:25:14.423Z,91.42
2018-01-12T06:27:43.449Z,90.91
2018-01-12T06:30:11.733Z,90.87
2018-01-12T06:32:40.001Z,90.17
2018-01-12T06:35:08.341Z,90.76
2018-01-12T06:37:36.616Z,90.78
2018-01-12T06:40:05.655Z,90.80
2018-01-12T06:42:33.921Z,90.71
2018-01-12T06:45:02.947Z,90.89
2018-01-12T06:47:31.208Z,90.82
2018-01-12T06:50:00.226Z,91.00
2018-01-12T06:52:29.256Z,91.06
2018-01-12T06:54:57.555Z,90.23
2018-01-12T06:57:26.045Z,90.88
2018-01-12T06:59:54.318Z,90.58
2018-01-12T07:02:22.589Z,90.26
2018-01-12T07:04:51.605Z,90.80
2018-01-12T07:07:20.638Z,90.58
2018-01-12T07:09:48.881Z,90.36
2018-01-12T07:12:17.158Z,90.54
2018-01-12T07:14:45.416Z,90.24
2018-01-12T07:17:13.697Z,90.37
2018-01-12T07:19:42.007Z,89.66
2018-01-12T07:22:26.975Z,89.63
2018-01-12T07:24:55.988Z,89.46
2018-01-12T07:27:24.362Z,89.21
2018-01-12T07:29:52.632Z,89.47
2018-01-12T07:32:20.923Z,89.10
2018-01-12T07:34:49.179Z,89.28
2018-01-12T07:37:17.550Z,88.91
2018-01-12T07:39:45.809Z,88.65
2018-01-12T07:42:14.080Z,88.63
2018-01-12T07:44:42.344Z,88.95
2018-01-12T07:47:11.392Z,88.53
2018-01-12T07:49:39.729Z,88.13
2018-01-12T07:52:08.023Z,87.88
2018-01-12T07:54:36.292Z,87.77
2018-01-12T07:57:04.563Z,87.41
2018-01-12T07:59:32.823Z,87.34
2018-01-12T08:02:07.526Z,87.26
2018-01-12T08:04:35.787Z,87.71
2018-01-12T08:07:04.144Z,87.05
2018-01-12T08:09:33.147Z,87.27
2018-01-12T08:12:01.413Z,86.63
2018-01-12T08:14:29.676Z,86.44
2018-01-12T08:16:57.972Z,85.97
2018-01-12T08:19:26.237Z,86.27
2018-01-12T08:21:54.484Z,86.77
2018-01-12T08:24:23.512Z,87.32
2018-01-12T08:26:51.756Z,86.67
2018-01-12T08:29:20.019Z,86.15
2018-01-12T08:31:48.268Z,85.31
2018-01-12T08:34:16.542Z,85.40
2018-01-12T08:36:46.304Z,85.35
2018-01-12T08:39:14.566Z,83.76
2018-01-12T08:41:42.835Z,85.09
2018-01-12T08:44:11.879Z,84.53
2018-01-12T08:46:40.278Z,84.11
2018-01-12T08:49:08.629Z,83.26
2018-01-12T08:51:37.685Z,82.28
2018-01-12T08:54:05.975Z,83.46
2018-01-12T08:56:34.203Z,83.38
2018-01-12T08:59:02.478Z,81.97
2018-01-12T09:01:30.732Z,82.20
2018-01-12T09:03:59.036Z,82.75
2018-01-12T09:06:27.326Z,82.89
2018-01-12T09:08:55.590Z,83.00
2018-01-12T09:11:23.842Z,82.96
2018-01-12T09:13:58.027Z,82.40
2018-01-12T09:16:28.158Z,85.75
2018-01-12T09:19:10.036Z,81.09
2018-01-12T09:21:38.470Z,82.10
2018-01-12T09:24:23.216Z,82.63
2018-01-12T09:26:51.458Z,81.55
2018-01-12T09:29:19.746Z,80.18
2018-01-12T09:31:51.668Z,81.67
2018-01-12T09:34:37.803Z,80.66
2018-01-12T09:37:06.052Z,81.44
2018-01-12T09:39:42.987Z,80.82
2018-01-12T09:42:11.353Z,80.01
2018-01-12T09:44:39.785Z,80.09
2018-01-12T09:47:21.598Z,80.17
2018-01-12T09:49:49.863Z,78.84
2018-01-12T09:52:18.214Z,79.11
2018-01-12T09:54:47.307Z,77.65
2018-01-12T09:57:16.432Z,78.03
2018-01-12T09:59:44.707Z,77.19
2018-01-12T10:02:13.774Z,76.14
2018-01-12T10:04:42.152Z,76.56
2018-01-12T10:07:20.160Z,77.17
2018-01-12T10:09:49.145Z,77.26
2018-01-12T10:12:18.502Z,76.76
2018-01-12T10:14:47.522Z,76.99
2018-01-12T10:17:15.851Z,77.11
2018-01-12T10:20:02.713Z,76.96
2018-01-12T10:22:31.761Z,75.15
2018-01-12T10:25:00.799Z,75.36
2018-01-12T10:27:29.058Z,76.54
2018-01-12T10:29:58.107Z,76.06
2018-01-12T10:32:27.071Z,76.56
2018-01-12T10:35:13.121Z,76.77
2018-01-12T10:37:41.400Z,75.75
2018-01-12T10:43:27.844Z,74.73
2018-01-12T10:46:08.979Z,74.10
2018-01-12T10:48:52.839Z,74.82
2018-01-12T10:51:36.615Z,73.16
2018-01-12T10:54:04.914Z,72.86
2018-01-12T10:56:33.942Z,71.38
2018-01-12T10:59:02.187Z,68.62
2018-01-12T11:01:30.456Z,70.90
2018-01-12T11:03:58.743Z,72.92
2018-01-12T11:06:27.023Z,72.91
2018-01-12T11:08:55.284Z,73.03
2018-01-12T11:11:23.563Z,73.79
2018-01-12T11:13:52.595Z,73.56
2018-01-12T11:16:20.859Z,74.00
2018-01-12T11:18:50.623Z,72.80
2018-01-12T11:21:18.895Z,74.37
2018-01-12T11:23:47.149Z,72.79
2018-01-12T11:26:15.409Z,74.90
2018-01-12T11:28:43.697Z,74.08
2018-01-12T11:31:11.979Z,73.13
2018-01-12T11:33:40.265Z,74.08
2018-01-12T11:36:09.357Z,72.88
2018-01-12T11:38:37.683Z,72.40
2018-01-12T11:41:05.968Z,73.73
2018-01-12T11:43:34.226Z,72.06
2018-01-12T11:46:02.486Z,71.07
2018-01-12T11:48:31.491Z,72.50
2018-01-12T11:51:00.514Z,73.40
2018-01-12T11:53:28.863Z,72.36
2018-01-12T11:55:57.210Z,73.04
2018-01-12T11:58:25.458Z,72.34
2018-01-12T12:00:54.659Z,73.21
2018-01-12T12:03:22.913Z,74.11
2018-01-12T12:05:51.152Z,72.32
2018-01-12T12:08:20.170Z,74.02
2018-01-12T12:10:49.183Z,74.41
2018-01-12T12:13:18.207Z,73.25
2018-01-12T12:15:46.464Z,73.74
2018-01-12T12:18:15.503Z,74.87
2018-01-12T12:20:43.778Z,75.58
2018-01-12T12:23:12.068Z,74.84
2018-01-12T12:25:40.376Z,74.94
2018-01-12T12:28:08.699Z,76.61
2018-01-12T12:30:36.951Z,74.91
2018-01-12T12:33:05.223Z,76.12
2018-01-12T12:35:33.471Z,73.94
2018-01-12T12:38:01.731Z,74.27
2018-01-12T12:40:29.975Z,74.39
2018-01-12T12:42:59.055Z,77.46
2018-01-12T12:45:27.306Z,73.83
2018-01-12T12:47:55.567Z,77.05
2018-01-12T12:50:23.856Z,78.37
2018-01-12T12:52:52.083Z,75.83
2018-01-12T12:55:21.111Z,80.70
2018-01-12T12:57:49.418Z,79.23
2018-01-12T13:00:17.672Z,77.60
2018-01-12T13:02:45.931Z,75.33
2018-01-12T13:05:14.191Z,75.98
2018-01-12T13:07:42.527Z,78.32
2018-01-12T13:10:10.869Z,76.67
2018-01-12T13:12:39.980Z,75.98
2018-01-12T13:15:09.039Z,75.43
2018-01-12T13:17:37.338Z,80.66
2018-01-12T13:20:05.599Z,77.79
2018-01-12T13:22:33.863Z,77.58
2018-01-12T13:25:02.888Z,78.56
2018-01-12T13:27:31.151Z,77.17
2018-01-12T13:30:00.163Z,74.30
2018-01-12T13:32:28.432Z,75.63
2018-01-12T13:34:56.710Z,74.52
2018-01-12T13:37:24.950Z,75.47
2018-01-12T13:39:53.210Z,75.93
2018-01-12T13:42:21.469Z,75.88
2018-01-12T13:44:49.748Z,75.70
2018-01-12T13:47:18.290Z,77.17
2018-01-12T13:49:47.437Z,75.97
2018-01-12T13:52:16.679Z,77.29
2018-01-12T13:54:45.234Z,76.49
2018-01-12T13:57:13.618Z,76.82
2018-01-12T13:59:42.056Z,77.14
2018-01-12T14:02:10.476Z,76.47
2018-01-12T14:04:39.033Z,77.55
2018-01-12T14:07:07.548Z,77.44
2018-01-12T14:09:36.049Z,77.39
2018-01-12T14:12:04.426Z,77.93
2018-01-12T14:14:32.713Z,77.10
2018-01-12T14:17:01.270Z,77.00
2018-01-12T14:19:29.694Z,78.36
2018-01-12T14:21:58.071Z,77.51
2018-01-12T14:24:26.730Z,77.91
2018-01-12T14:26:55.835Z,77.31
2018-01-12T14:29:24.863Z,77.70
2018-01-12T14:31:53.112Z,77.30
2018-01-12T14:34:21.371Z,78.64
2018-01-12T14:36:50.391Z,79.27
2018-01-12T14:39:18.659Z,79.21
2018-01-12T14:41:46.909Z,78.63
2018-01-12T14:44:15.219Z,78.76
2018-01-12T14:46:43.480Z,79.68
2018-01-12T14:49:11.752Z,79.49
2018-01-12T14:51:40.049Z,79.25
2018-01-12T14:54:09.253Z,78.68
2018-01-12T14:56:37.615Z,79.10
2018-01-12T14:59:05.866Z,79.25
2018-01-12T15:01:34.915Z,79.27
2018-01-12T15:04:03.374Z,79.82
2018-01-12T15:06:31.855Z,80.00
2018-01-12T15:09:01.265Z,79.74
2018-01-12T15:11:30.635Z,80.17
2018-01-12T15:13:59.356Z,79.75
2018-01-12T15:16:28.333Z,80.12
2018-01-12T15:18:56.846Z,81.15
2018-01-12T15:21:25.312Z,80.98
2018-01-12T15:23:53.981Z,80.52
2018-01-12T15:26:22.456Z,80.27
2018-01-12T15:28:51.214Z,81.05
2018-01-12T15:31:19.787Z,80.21
2018-01-12T15:33:48.445Z,80.43
2018-01-12T15:36:17.867Z,80.34
2018-01-12T15:38:46.955Z,79.57
2018-01-12T15:41:15.928Z,79.94
2018-01-12T15:43:44.324Z,80.23
2018-01-12T15:46:12.877Z,81.56
2018-01-12T15:48:42.174Z,82.14
2018-01-12T15:51:11.537Z,81.27
2018-01-12T15:53:40.283Z,81.22
2018-01-12T15:56:08.673Z,81.24
2018-01-12T15:58:38.037Z,81.24
2018-01-12T16:01:06.456Z,81.59
2018-01-12T16:03:35.073Z,80.61
2018-01-12T16:06:04.239Z,81.96
2018-01-12T16:08:32.719Z,82.08
2018-01-12T16:11:02.629Z,82.05
2018-01-12T16:13:33.035Z,82.27
2018-01-12T16:16:03.040Z,82.21
2018-01-12T16:18:31.624Z,81.83
2018-01-12T16:21:00.257Z,81.58
2018-01-12T16:23:29.096Z,81.40
2018-01-12T16:25:58.441Z,81.81
2018-01-12T16:28:26.880Z,81.14
2018-01-12T16:30:55.446Z,81.75
2018-01-12T16:33:24.806Z,81.89
2018-01-12T16:35:53.630Z,81.63
2018-01-12T16:38:22.427Z,81.25
2018-01-12T16:40:51.005Z,80.87
2018-01-12T16:43:20.192Z,81.91
2018-01-12T16:45:49.029Z,81.33
2018-01-12T16:48:18.342Z,80.59
2018-01-12T16:50:48.205Z,80.54
2018-01-12T16:53:17.320Z,81.18
2018-01-12T16:55:46.352Z,81.61
2018-01-12T16:58:15.165Z,81.68
2018-01-12T17:00:44.187Z,81.41
2018-01-12T17:03:14.180Z,81.49
2018-01-12T17:05:42.839Z,81.21
2018-01-12T17:08:11.266Z,81.76
2018-01-12T17:10:39.850Z,81.02
2018-01-12T17:13:08.269Z,81.32
2018-01-12T17:15:36.753Z,81.13
2018-01-12T17:18:05.821Z,81.50
2018-01-12T17:20:34.705Z,81.58
2018-01-12T17:23:04.068Z,80.65
2018-01-12T17:25:32.381Z,80.66
2018-01-12T17:28:01.139Z,80.88
2018-01-12T17:30:30.982Z,80.98
2018-01-12T17:32:59.543Z,80.57
2018-01-12T17:35:28.384Z,81.51
2018-01-12T17:37:56.936Z,81.37
2018-01-12T17:40:26.612Z,82.30
2018-01-12T17:42:55.699Z,81.61
2018-01-12T17:45:24.988Z,81.43
2018-01-12T17:47:54.181Z,81.08
2018-01-12T17:50:23.533Z,81.19
2018-01-12T17:52:52.094Z,81.36
2018-01-12T17:55:21.335Z,83.20
2018-01-12T17:57:49.806Z,80.64
2018-01-12T18:00:19.823Z,80.32
2018-01-12T18:02:49.133Z,81.28
2018-01-12T18:05:18.688Z,81.21
2018-01-12T18:07:47.790Z,80.53
2018-01-12T18:10:16.703Z,80.83
2018-01-12T18:12:45.321Z,81.25
2018-01-12T18:15:13.929Z,81.63
2018-01-12T18:17:42.699Z,81.50
2018-01-12T18:20:11.035Z,81.96
2018-01-12T18:22:39.792Z,81.93
2018-01-12T18:25:08.394Z,81.86
2018-01-12T18:27:37.355Z,81.41
2018-01-12T18:30:06.382Z,81.58
2018-01-12T18:32:35.704Z,81.24
2018-01-12T18:35:03.976Z,81.15
2018-01-12T18:37:33.001Z,81.04
2018-01-12T18:40:01.281Z,81.23
2018-01-12T18:42:29.527Z,81.51
2018-01-12T18:44:57.919Z,81.13
2018-01-12T18:47:26.192Z,80.96
2018-01-12T18:49:54.498Z,81.17
2018-01-12T18:52:22.760Z,81.22
2018-01-12T18:54:51.088Z,81.35
2018-01-12T18:57:20.325Z,81.17
2018-01-12T18:59:48.625Z,81.03
2018-01-12T19:02:16.885Z,80.37
2018-01-12T19:04:45.943Z,80.46
2018-01-12T19:07:14.212Z,80.23
2018-01-12T19:09:43.266Z,80.48
2018-01-12T19:12:11.643Z,80.40
2018-01-12T19:14:40.021Z,80.26
2018-01-12T19:17:08.334Z,79.80
2018-01-12T19:19:36.623Z,78.84
2018-01-12T19:22:05.684Z,78.75
2018-01-12T19:24:33.955Z,78.72
2018-01-12T19:27:02.989Z,79.46
2018-01-12T19:29:31.296Z,79.26
2018-01-12T19:31:59.557Z,79.03
2018-01-12T19:34:27.841Z,79.24
2018-01-12T19:36:56.123Z,78.64
2018-01-12T19:39:25.207Z,79.39
2018-01-12T19:41:53.527Z,78.96
2018-01-12T19:44:21.783Z,79.50
2018-01-12T19:46:50.054Z,79.37
2018-01-12T19:49:19.073Z,79.11
2018-01-12T19:51:47.347Z,79.39
2018-01-12T19:54:15.613Z,79.63
2018-01-12T19:56:43.923Z,79.81
2018-01-12T19:59:12.249Z,79.81
2018-01-12T20:01:40.573Z,79.68
2018-01-12T20:04:08.854Z,79.70
2018-01-12T20:06:37.140Z,79.89
2018-01-12T20:09:06.237Z,79.96
2018-01-12T20:11:34.507Z,79.60
2018-01-12T20:14:02.771Z,80.33
2018-01-12T20:16:31.078Z,80.50
2018-01-12T20:18:59.326Z,80.72
2018-01-12T20:21:27.605Z,80.40
2018-01-12T20:23:55.875Z,80.35
2018-01-12T20:26:24.908Z,81.34
2018-01-12T20:28:53.167Z,81.09
2018-01-12T20:31:21.444Z,81.77
2018-01-12T20:33:50.519Z,82.01
2018-01-12T20:36:18.764Z,81.54
2018-01-12T20:38:47.784Z,81.70
2018-01-12T20:41:16.050Z,80.90
2018-01-12T20:43:45.076Z,81.32
2018-01-12T20:46:13.357Z,81.91
2018-01-12T20:48:41.616Z,81.77
2018-01-12T20:51:10.020Z,80.87
2018-01-12T20:53:39.095Z,81.03
2018-01-12T20:56:07.451Z,81.11
2018-01-12T20:58:35.759Z,81.42
2018-01-12T21:01:04.079Z,81.69
2018-01-12T21:03:32.411Z,81.23
2018-01-12T21:06:00.687Z,81.60
2018-01-12T21:08:29.741Z,82.17
2018-01-12T21:10:58.045Z,81.81
2018-01-12T21:13:26.361Z,81.74
2018-01-12T21:15:54.673Z,81.81
2018-01-12T21:18:23.745Z,81.16
2018-01-12T21:20:52.165Z,82.00
2018-01-12T21:23:20.423Z,81.85
2018-01-12T21:25:48.709Z,81.08
2018-01-12T21:28:17.045Z,80.85
2018-01-12T21:30:45.291Z,81.64
2018-01-12T21:33:13.579Z,81.14
2018-01-12T21:35:41.848Z,80.98
2018-01-12T21:38:10.146Z,80.18
2018-01-12T21:40:38.454Z,81.22
2018-01-12T21:43:06.850Z,79.83
2018-01-12T21:45:35.137Z,80.30
2018-01-12T21:48:03.452Z,80.51
2018-01-12T21:50:32.479Z,80.56
2018-01-12T21:53:00.744Z,80.36
2018-01-12T21:55:29.797Z,81.00
2018-01-12T21:57:58.072Z,79.37
2018-01-12T22:00:26.328Z,79.49
2018-01-12T22:02:54.611Z,79.51
2018-01-12T22:05:23.678Z,79.68
2018-01-12T22:07:52.746Z,80.30
2018-01-12T22:10:21.767Z,80.29
2018-01-12T22:12:50.113Z,80.44
2018-01-12T22:15:19.145Z,80.28
2018-01-12T22:17:48.175Z,79.61
2018-01-12T22:20:16.475Z,80.45
2018-01-12T22:22:44.732Z,79.93
2018-01-12T22:25:13.837Z,80.02
2018-01-12T22:27:42.880Z,79.92
2018-01-12T22:30:11.175Z,80.29
2018-01-12T22:32:39.456Z,80.35
2018-01-12T22:35:07.747Z,80.26
2018-01-12T22:37:36.810Z,79.53
2018-01-12T22:40:05.117Z,80.19
2018-01-12T22:42:33.383Z,79.61
2018-01-12T22:45:02.451Z,79.29
2018-01-12T22:47:30.723Z,79.36
2018-01-12T22:49:59.058Z,78.96
2018-01-12T22:52:27.328Z,78.74
2018-01-12T22:54:55.626Z,78.75
2018-01-12T22:57:23.868Z,79.56
2018-01-12T22:59:52.195Z,79.56
2018-01-12T23:02:20.431Z,78.87
2018-01-12T23:04:48.699Z,79.09
2018-01-12T23:07:16.951Z,80.36
2018-01-12T23:09:45.290Z,80.14
2018-01-12T23:12:14.373Z,79.38
2018-01-12T23:14:42.699Z,79.39
2018-01-12T23:17:11.831Z,78.75
2018-01-12T23:19:40.995Z,79.67
2018-01-12T23:22:09.457Z,79.63
2018-01-12T23:24:37.750Z,79.44
2018-01-12T23:27:06.012Z,79.60
2018-01-12T23:29:34.296Z,80.07
2018-01-12T23:32:02.562Z,80.57
2018-01-12T23:34:30.837Z,80.71
2018-01-12T23:36:59.134Z,80.30
2018-01-12T23:39:28.190Z,80.61
2018-01-12T23:41:57.123Z,79.89
2018-01-12T23:44:25.480Z,79.76
2018-01-12T23:46:54.500Z,79.96
2018-01-12T23:49:22.764Z,79.58
2018-01-12T23:51:51.031Z,79.85
2018-01-12T23:54:20.075Z,79.19
2018-01-12T23:56:48.319Z,78.71
2018-01-12T23:59:17.389Z,78.86
